Time;durP1;ratioP1;P1;durP2;ratioP2;P2;SDS_P1;SDS_P2;PMS_P1;PMS_P2;Temp;Humidity;BMP_temperature;BMP_pressure;BME280_temperature;BME280_humidity;BME280_pressure;Samples;Min_cycle;Max_cycle;Signal;HPM_P1;HPM_P2
2022/05/22 00:01:20;;;;;;;6.97;4.28;;;;;;;25.73;48.98;100906.97;4971414;28;20050;-83
2022/05/22 00:03:47;;;;;;;5.22;4.53;;;;;;;25.30;49.40;100850.88;4989860;28;20050;-82
2022/05/22 00:06:13;;;;;;;7.47;4.50;;;;;;;25.69;49.20;100898.47;4974721;28;20046;-83
2022/05/22 00:08:40;;;;;;;7.72;4.20;;;;;;;25.46;48.81;100860.28;4977349;28;20050;-83
2022/05/22 00:11:07;;;;;;;8.63;4.90;;;;;;;25.52;48.93;100875.69;4971339;28;20360;-83
2022/05/22 00:13:34;;;;;;;6.65;4.10;;;;;;;25.75;48.95;100913.88;4971730;28;20480;-83
2022/05/22 00:18:45;;;;;;;5.93;4.75;;;;;;;25.62;49.24;100897.72;4988682;28;20042;-81
2022/05/22 00:21:13;;;;;;;10.77;4.97;;;;;;;25.54;48.90;100879.84;4971441;28;20050;-82
2022/05/22 00:23:40;;;;;;;8.25;4.78;;;;;;;25.73;49.22;100924.13;4970812;28;20385;-83
2022/05/22 00:26:06;;;;;;;11.90;4.65;;;;;;;25.78;49.13;100927.00;4971161;28;20050;-82
2022/05/22 00:28:33;;;;;;;6.72;4.30;;;;;;;25.75;48.73;100886.69;4970707;28;20081;-83
2022/05/22 00:30:59;;;;;;;7.22;4.10;;;;;;;25.86;48.88;100912.28;4970902;28;20050;-83
2022/05/22 00:33:28;;;;;;;6.22;4.40;;;;;;;25.86;49.00;100925.88;4970594;28;20054;-81
2022/05/22 00:35:55;;;;;;;6.28;4.70;;;;;;;25.78;48.88;100916.13;4970945;28;20109;-82
2022/05/22 00:38:21;;;;;;;8.43;4.60;;;;;;;25.71;49.31;100918.09;4970785;28;20085;-81
2022/05/22 00:40:48;;;;;;;6.07;4.30;;;;;;;25.52;49.51;100897.44;4970685;28;20070;-82
2022/05/22 00:43:36;;;;;;;5.82;4.00;;;;;;;25.20;49.75;100862.28;4988220;28;20132;-82
2022/05/22 00:46:05;;;;;;;5.78;3.85;;;;;;;25.63;49.32;100907.50;4970828;28;20154;-83
2022/05/22 00:48:33;;;;;;;5.65;4.38;;;;;;;25.58;49.53;100916.38;4970791;28;20408;-82
2022/05/22 00:51:07;;;;;;;5.03;4.18;;;;;;;25.52;49.87;100919.19;4988089;28;20050;-82
2022/05/22 00:53:38;;;;;;;6.68;4.60;;;;;;;24.75;49.56;100783.78;4970548;28;20523;-82
2022/05/22 00:56:08;;;;;;;8.95;4.80;;;;;;;25.43;49.62;100904.22;4971104;28;20050;-82
2022/05/22 00:58:35;;;;;;;5.57;4.03;;;;;;;25.00;49.99;100843.47;4988237;28;20104;-83
2022/05/22 01:01:03;;;;;;;8.77;4.35;;;;;;;25.40;50.00;100926.44;4971515;28;20116;-82
2022/05/22 01:03:31;;;;;;;5.32;4.40;;;;;;;25.24;50.10;100906.13;4970723;28;20066;-84
2022/05/22 01:06:08;;;;;;;7.90;4.30;;;;;;;25.24;49.84;100890.63;4970858;28;20046;-82
2022/05/22 01:08:37;;;;;;;5.93;4.68;;;;;;;25.27;50.20;100905.66;4971570;28;20094;-83
2022/05/22 01:11:15;;;;;;;5.63;4.45;;;;;;;25.27;49.93;100925.53;4971250;28;20360;-82
2022/05/22 01:14:07;;;;;;;5.35;4.53;;;;;;;25.37;50.17;100923.09;4970906;28;20077;-82
2022/05/22 01:16:34;;;;;;;6.82;5.05;;;;;;;25.14;50.19;100906.59;4970359;28;20157;-82
2022/05/22 01:19:08;;;;;;;7.93;4.75;;;;;;;25.33;50.19;100926.50;4970328;28;20113;-82
2022/05/22 01:21:39;;;;;;;7.18;4.32;;;;;;;25.19;50.33;100909.50;4988368;28;20271;-81
2022/05/22 01:24:07;;;;;;;8.10;4.75;;;;;;;25.22;50.42;100924.53;4987736;28;20455;-82
2022/05/22 01:26:34;;;;;;;11.45;5.25;;;;;;;25.18;50.78;100940.47;4970518;28;20523;-83
2022/05/22 01:29:01;;;;;;;5.93;4.22;;;;;;;25.01;50.60;100913.00;4988063;28;20523;-82
2022/05/22 01:31:28;;;;;;;9.57;4.57;;;;;;;25.08;50.83;100923.81;4970683;28;20109;-83
2022/05/22 01:33:55;;;;;;;5.35;4.32;;;;;;;24.71;51.06;100881.16;4988508;28;20587;-83
2022/05/22 01:36:21;;;;;;;5.95;4.25;;;;;;;24.82;51.28;100914.88;4988606;28;20074;-82
2022/05/22 01:38:48;;;;;;;7.72;4.40;;;;;;;25.02;51.24;100951.88;4988648;28;20100;-83
2022/05/22 01:41:14;;;;;;;5.55;3.67;;;;;;;24.83;51.33;100916.53;4971138;28;20443;-82
2022/05/22 01:43:41;;;;;;;5.28;4.65;;;;;;;24.94;51.20;100923.94;4968271;28;20125;-83
2022/05/22 01:46:08;;;;;;;8.57;5.10;;;;;;;24.28;51.08;100815.94;4968726;28;20061;-83
2022/05/22 01:48:35;;;;;;;12.23;4.65;;;;;;;24.92;50.78;100904.31;4967727;28;20439;-83
2022/05/22 01:51:02;;;;;;;6.50;5.10;;;;;;;25.08;50.89;100950.97;4952305;28;20059;-83
2022/05/22 01:53:28;;;;;;;7.15;4.38;;;;;;;24.84;51.05;100911.94;4974919;28;20050;-81
2022/05/22 01:55:55;;;;;;;6.00;4.72;;;;;;;25.13;50.61;100948.41;4975134;28;20062;-82
2022/05/22 01:58:22;;;;;;;5.78;4.75;;;;;;;24.91;50.97;100923.56;4993989;28;20054;-82
2022/05/22 02:00:49;;;;;;;7.57;4.22;;;;;;;24.76;51.05;100902.19;4976840;28;20496;-83
2022/05/22 02:03:15;;;;;;;5.38;4.50;;;;;;;24.85;50.92;100914.41;4993387;28;20481;-82
2022/05/22 02:05:43;;;;;;;7.00;5.07;;;;;;;24.97;51.25;100933.53;4996557;28;20050;-82
2022/05/22 02:08:22;;;;;;;11.23;4.82;;;;;;;24.92;51.13;100942.34;4983908;28;20058;-82
2022/05/22 02:10:53;;;;;;;8.20;4.53;;;;;;;24.69;50.98;100880.53;4990392;28;20046;-82
2022/05/22 02:13:23;;;;;;;6.85;3.78;;;;;;;24.93;51.24;100937.75;4988054;28;20054;-82
2022/05/22 02:15:50;;;;;;;5.35;4.30;;;;;;;24.82;51.40;100923.00;4970448;28;20058;-83
2022/05/22 02:18:18;;;;;;;8.48;4.80;;;;;;;24.83;51.23;100930.13;4969913;28;20152;-83
2022/05/22 02:20:45;;;;;;;4.78;4.05;;;;;;;24.21;51.45;100835.00;4969672;28;20055;-83
2022/05/22 02:23:12;;;;;;;7.00;4.47;;;;;;;24.64;52.01;100922.97;4969916;28;20101;-83
2022/05/22 02:25:43;;;;;;;7.10;4.80;;;;;;;24.40;52.00;100882.00;4969908;28;20499;-82
2022/05/22 02:28:14;;;;;;;10.02;4.97;;;;;;;24.27;51.62;100852.25;4970315;28;20054;-82
2022/05/22 02:30:45;;;;;;;6.15;4.90;;;;;;;24.46;51.79;100883.84;4989912;28;20069;-83
2022/05/22 02:33:12;;;;;;;9.52;5.05;;;;;;;23.97;51.10;100766.13;4973423;28;20480;-83
2022/05/22 02:35:40;;;;;;;7.72;4.72;;;;;;;24.58;51.47;100881.25;4973379;28;20497;-81
2022/05/22 02:38:07;;;;;;;9.75;4.90;;;;;;;24.52;51.66;100893.84;4973635;28;20553;-83
2022/05/22 02:40:34;;;;;;;7.32;4.82;;;;;;;24.63;51.60;100913.16;4973720;28;20082;-83
2022/05/22 02:43:01;;;;;;;7.13;4.78;;;;;;;23.87;52.27;100798.31;4973365;28;20082;-83
2022/05/22 02:45:31;;;;;;;5.25;4.55;;;;;;;24.03;52.40;100819.50;4973457;28;20441;-83
2022/05/22 02:47:57;;;;;;;8.63;4.80;;;;;;;24.45;52.61;100889.47;4973175;28;20472;-82
2022/05/22 02:50:27;;;;;;;5.95;4.97;;;;;;;24.36;52.50;100875.34;4990565;28;20046;-82
2022/05/22 02:52:53;;;;;;;5.53;4.22;;;;;;;24.35;52.19;100862.03;4972924;28;20129;-81
2022/05/22 02:55:20;;;;;;;6.65;4.35;;;;;;;24.54;52.13;100901.75;4973086;28;20054;-82
2022/05/22 02:57:50;;;;;;;5.63;4.97;;;;;;;24.51;52.10;100892.16;4973290;28;20070;-83
2022/05/22 03:00:20;;;;;;;6.57;4.80;;;;;;;24.33;52.33;100873.09;4973269;28;20315;-81
2022/05/22 03:02:47;;;;;;;6.97;5.05;;;;;;;24.41;52.30;100891.78;4975049;28;20058;-81
2022/05/22 03:05:14;;;;;;;5.32;4.82;;;;;;;24.48;52.21;100898.03;4985528;28;20038;-82
2022/05/22 03:07:46;;;;;;;7.80;4.55;;;;;;;24.39;52.36;100883.03;4998343;28;20042;-82
2022/05/22 03:10:17;;;;;;;5.65;4.50;;;;;;;24.43;52.46;100888.88;4996992;28;20050;-82
2022/05/22 03:12:44;;;;;;;8.32;4.88;;;;;;;24.20;52.59;100859.59;4989969;28;20058;-83
2022/05/22 03:15:13;;;;;;;6.10;4.93;;;;;;;24.31;52.58;100886.03;4981630;28;20109;-83
2022/05/22 03:17:40;;;;;;;6.00;5.30;;;;;;;24.07;52.55;100847.81;4973358;28;20161;-82
2022/05/22 03:20:07;;;;;;;6.38;4.07;;;;;;;24.22;52.42;100861.03;4989986;28;20525;-83
2022/05/22 03:22:34;;;;;;;5.25;4.55;;;;;;;23.64;52.71;100799.69;4972150;28;20043;-83
2022/05/22 03:25:01;;;;;;;5.28;4.38;;;;;;;24.21;52.74;100897.38;4972531;28;20088;-83
2022/05/22 03:27:28;;;;;;;6.22;4.65;;;;;;;24.21;52.90;100893.84;4989609;28;20050;-82
2022/05/22 03:29:54;;;;;;;5.25;4.75;;;;;;;24.16;52.68;100899.09;4972203;28;20050;-82
2022/05/22 03:32:21;;;;;;;6.00;4.70;;;;;;;24.21;53.13;100910.09;4972820;28;20050;-83
2022/05/22 03:34:55;;;;;;;6.80;5.15;;;;;;;24.22;52.85;100911.75;4989789;28;20046;-82
2022/05/22 03:37:24;;;;;;;7.72;5.22;;;;;;;24.15;53.01;100908.25;4972412;28;20567;-82
2022/05/22 03:39:57;;;;;;;7.05;4.78;;;;;;;23.37;53.17;100781.91;4990304;28;20352;-82
2022/05/22 03:42:27;;;;;;;7.47;4.55;;;;;;;24.07;52.69;100893.91;4972678;28;20058;-82
2022/05/22 03:44:54;;;;;;;6.60;4.32;;;;;;;23.92;53.57;100893.38;4972061;28;20464;-83
2022/05/22 03:47:20;;;;;;;7.05;5.05;;;;;;;24.04;53.92;100907.09;4990188;28;20050;-82
2022/05/22 03:49:47;;;;;;;5.45;4.32;;;;;;;23.76;53.45;100864.91;4972718;28;20054;-83
2022/05/22 03:52:14;;;;;;;6.85;4.78;;;;;;;23.99;53.43;100902.31;4973653;28;20289;-82
2022/05/22 03:54:41;;;;;;;6.90;4.80;;;;;;;23.71;53.26;100858.44;4973565;28;20290;-82
2022/05/22 03:57:10;;;;;;;6.10;5.18;;;;;;;24.04;53.33;100907.91;4990627;28;20544;-82
2022/05/22 03:59:39;;;;;;;11.38;4.88;;;;;;;23.60;53.35;100836.41;4973140;28;20104;-82
2022/05/22 04:02:06;;;;;;;5.63;4.90;;;;;;;23.74;53.31;100849.91;4972547;28;20501;-82
2022/05/22 04:04:33;;;;;;;8.20;4.88;;;;;;;23.98;53.85;100913.38;4989879;28;20052;-82
2022/05/22 04:07:00;;;;;;;4.65;4.03;;;;;;;23.74;53.96;100879.72;4973044;28;20086;-82
2022/05/22 04:09:28;;;;;;;5.88;4.82;;;;;;;24.01;53.82;100927.34;4974669;28;20078;-81
2022/05/22 04:11:55;;;;;;;6.05;5.13;;;;;;;24.03;53.61;100930.66;4975160;28;20504;-83
2022/05/22 04:14:22;;;;;;;6.00;4.50;;;;;;;23.99;53.89;100926.72;4979082;28;20051;-82
2022/05/22 04:16:49;;;;;;;8.02;5.63;;;;;;;24.02;53.62;100929.00;4975206;28;20082;-82
2022/05/22 04:19:16;;;;;;;7.10;4.85;;;;;;;24.08;53.33;100925.41;4992595;28;20054;-82
2022/05/22 04:21:44;;;;;;;6.70;5.43;;;;;;;23.75;53.32;100859.72;4992180;28;20120;-83
2022/05/22 04:26:56;;;;;;;8.10;5.40;;;;;;;24.17;53.26;100928.69;4991563;28;20473;-84
2022/05/22 04:29:33;;;;;;;7.70;4.97;;;;;;;24.20;52.92;100919.28;4971144;28;20042;-82
2022/05/22 04:32:00;;;;;;;6.90;5.38;;;;;;;23.75;53.32;100859.72;4987439;28;20161;-83
2022/05/22 04:34:27;;;;;;;6.72;4.55;;;;;;;24.04;53.75;100924.19;4968856;28;20054;-83
2022/05/22 04:36:54;;;;;;;8.57;5.45;;;;;;;24.07;53.79;100934.59;4967952;28;20472;-82
2022/05/22 04:39:21;;;;;;;9.18;5.18;;;;;;;24.02;53.61;100922.75;4968558;28;20467;-82
2022/05/22 04:41:48;;;;;;;5.22;4.65;;;;;;;24.04;53.89;100923.34;4968630;28;20050;-83
2022/05/22 04:44:14;;;;;;;6.30;4.78;;;;;;;24.10;53.47;100920.63;4968864;28;20050;-82
2022/05/22 04:46:41;;;;;;;5.90;4.85;;;;;;;24.16;53.40;100910.75;4968981;28;20057;-82
2022/05/22 04:49:08;;;;;;;6.63;5.82;;;;;;;24.23;53.34;100919.69;4968763;28;20314;-82
2022/05/22 04:51:35;;;;;;;6.05;4.82;;;;;;;24.29;53.25;100926.13;4985877;28;20042;-83
2022/05/22 04:54:02;;;;;;;5.20;4.50;;;;;;;24.19;53.22;100925.78;4968275;28;20065;-83
2022/05/22 04:56:29;;;;;;;6.63;4.78;;;;;;;23.48;53.33;100827.31;4968791;28;20061;-83
2022/05/22 04:58:56;;;;;;;5.80;4.85;;;;;;;24.00;52.94;100879.56;4968884;28;20120;-83
2022/05/22 05:01:23;;;;;;;8.95;5.32;;;;;;;24.28;52.89;100913.59;4968653;28;20054;-81
2022/05/22 05:03:50;;;;;;;6.95;5.03;;;;;;;23.68;53.41;100828.00;4968862;28;20141;-82
2022/05/22 05:06:16;;;;;;;6.00;4.80;;;;;;;23.80;53.10;100832.78;4986001;28;20404;-83
2022/05/22 05:08:43;;;;;;;5.38;4.60;;;;;;;24.17;53.29;100900.75;4948788;28;20073;-83
2022/05/22 05:11:11;;;;;;;7.28;5.60;;;;;;;24.26;53.08;100919.25;4966110;28;20059;-83
2022/05/22 05:13:38;;;;;;;9.13;5.03;;;;;;;24.34;53.13;100912.72;4964485;28;20054;-83
2022/05/22 05:16:08;;;;;;;8.90;4.93;;;;;;;24.46;53.33;100932.69;4966365;28;20191;-82
2022/05/22 05:18:36;;;;;;;6.97;4.80;;;;;;;24.13;53.33;100878.66;4968113;28;20050;-83
2022/05/22 05:21:07;;;;;;;6.60;4.78;;;;;;;24.48;53.77;100938.72;4986182;28;20058;-83
2022/05/22 05:23:34;;;;;;;8.13;4.55;;;;;;;24.59;53.62;100945.34;4968247;28;20214;-82
2022/05/22 05:26:00;;;;;;;9.00;4.82;;;;;;;24.43;52.58;100903.25;4985337;28;20054;-82
2022/05/22 05:28:27;;;;;;;8.23;4.93;;;;;;;24.55;53.48;100935.16;4968007;28;20093;-82
2022/05/22 05:30:54;;;;;;;9.68;4.90;;;;;;;24.74;53.29;100951.28;4968182;28;20132;-82
2022/05/22 05:33:22;;;;;;;5.93;4.63;;;;;;;24.83;53.10;100953.69;4986325;28;20182;-83
2022/05/22 05:35:49;;;;;;;10.55;5.32;;;;;;;24.23;52.57;100865.44;4968370;28;20054;-82
2022/05/22 05:38:16;;;;;;;11.10;4.65;;;;;;;24.28;53.30;100881.06;4968232;28;20046;-82
2022/05/22 05:40:44;;;;;;;7.53;4.65;;;;;;;23.88;53.34;100817.09;4985695;28;20057;-82
2022/05/22 05:43:11;;;;;;;9.45;4.95;;;;;;;24.82;53.26;100958.31;4984949;28;20069;-83
2022/05/22 05:45:38;;;;;;;7.55;4.88;;;;;;;24.89;53.11;100941.97;4985278;28;20054;-82
2022/05/22 05:48:04;;;;;;;7.65;5.35;;;;;;;25.01;52.63;100959.19;4969382;28;20047;-82
2022/05/22 05:50:31;;;;;;;7.05;5.53;;;;;;;24.99;52.45;100936.84;4969490;28;20112;-82
2022/05/22 05:53:00;;;;;;;5.43;4.85;;;;;;;24.90;52.33;100933.59;4969215;28;20137;-82
2022/05/22 05:55:27;;;;;;;5.28;4.40;;;;;;;25.08;51.95;100945.53;4969069;28;20464;-82
2022/05/22 05:58:13;;;;;;;5.65;4.80;;;;;;;25.17;52.13;100955.06;4972231;28;20093;-82
2022/05/22 06:01:00;;;;;;;7.38;5.55;;;;;;;25.14;52.27;100948.19;4972074;28;20109;-83
2022/05/22 06:03:27;;;;;;;6.72;5.25;;;;;;;24.97;52.38;100911.78;4969894;28;20608;-82
2022/05/22 06:05:54;;;;;;;5.32;4.35;;;;;;;24.94;52.16;100907.63;4989674;28;20470;-82
2022/05/22 06:08:24;;;;;;;4.95;4.35;;;;;;;24.79;51.21;100839.28;4974536;28;20081;-82
2022/05/22 06:10:53;;;;;;;6.07;5.13;;;;;;;25.20;51.72;100922.03;4979348;28;20145;-82
2022/05/22 06:13:19;;;;;;;7.25;4.85;;;;;;;24.46;51.67;100802.44;4980236;28;20080;-83
2022/05/22 06:15:46;;;;;;;9.65;4.85;;;;;;;25.37;51.49;100939.41;4979435;28;20535;-83
2022/05/22 06:18:13;;;;;;;7.40;5.00;;;;;;;25.57;51.56;100951.94;4976619;28;20141;-83
2022/05/22 06:20:39;;;;;;;6.13;5.53;;;;;;;25.29;51.76;100898.97;4990005;28;20539;-83
2022/05/22 06:23:06;;;;;;;5.70;5.05;;;;;;;25.51;51.89;100934.66;4971295;28;20069;-83
2022/05/22 06:25:34;;;;;;;7.70;4.70;;;;;;;25.71;51.68;100949.91;4972673;28;20436;-83
2022/05/22 06:28:01;;;;;;;9.02;5.00;;;;;;;25.18;51.57;100848.09;4972236;28;20054;-83
2022/05/22 06:30:27;;;;;;;8.05;5.70;;;;;;;25.86;51.27;100955.78;4971743;28;20113;-83
2022/05/22 06:32:54;;;;;;;6.32;5.32;;;;;;;25.95;50.64;100956.31;4972367;28;20061;-82
2022/05/22 06:35:24;;;;;;;9.75;6.15;;;;;;;25.71;50.92;100918.09;4971862;28;20254;-82
2022/05/22 06:37:50;;;;;;;8.88;5.85;;;;;;;26.01;50.73;100939.88;4988776;28;20046;-82
2022/05/22 06:40:17;;;;;;;7.07;5.60;;;;;;;26.08;50.43;100944.41;4970964;28;20050;-82
2022/05/22 06:42:44;;;;;;;6.38;4.93;;;;;;;26.00;50.19;100931.97;4975620;28;20495;-81
2022/05/22 06:45:14;;;;;;;5.72;5.22;;;;;;;26.09;50.17;100951.50;4977447;28;20112;-83
2022/05/22 06:47:43;;;;;;;10.02;5.43;;;;;;;25.76;50.34;100899.19;4975390;28;20050;-82
2022/05/22 06:50:14;;;;;;;7.38;4.85;;;;;;;25.57;50.34;100863.06;4989816;28;20153;-82
2022/05/22 06:52:41;;;;;;;6.82;5.03;;;;;;;26.11;50.21;100947.50;4989620;28;21799;-82
2022/05/22 06:55:09;;;;;;;5.78;5.22;;;;;;;26.10;50.59;100954.00;4990080;28;20298;-82
2022/05/22 06:57:37;;;;;;;8.93;5.63;;;;;;;25.98;50.91;100947.69;4989431;28;20054;-81
2022/05/22 07:00:07;;;;;;;6.35;5.07;;;;;;;26.11;50.18;100950.22;4989373;28;20047;-83
2022/05/22 07:02:36;;;;;;;11.68;5.88;;;;;;;26.28;49.86;100960.44;4972278;28;20578;-82
2022/05/22 07:05:04;;;;;;;8.50;5.25;;;;;;;26.19;50.34;100960.78;4989326;28;20480;-82
2022/05/22 07:07:33;;;;;;;9.38;5.43;;;;;;;26.15;49.64;100935.09;4989953;28;20058;-83
2022/05/22 07:10:00;;;;;;;9.68;5.22;;;;;;;26.12;49.54;100932.00;4972486;28;20050;-83
2022/05/22 07:12:26;;;;;;;7.43;4.72;;;;;;;26.25;49.32;100934.53;4973766;28;20062;-83
2022/05/22 07:14:55;;;;;;;11.82;5.60;;;;;;;26.25;48.76;100931.00;5003317;28;20034;-83
2022/05/22 07:17:24;;;;;;;8.70;5.45;;;;;;;26.25;49.30;100931.81;5014476;28;20046;-82
2022/05/22 07:19:52;;;;;;;6.93;5.55;;;;;;;25.98;48.98;100885.13;4987083;28;20060;-82
2022/05/22 07:22:20;;;;;;;7.05;5.03;;;;;;;26.17;49.08;100915.81;4973282;28;20047;-82
2022/05/22 07:24:46;;;;;;;8.20;5.88;;;;;;;26.25;49.03;100939.16;4972756;28;20053;-81
2022/05/22 07:27:14;;;;;;;6.88;5.47;;;;;;;26.37;49.42;100937.28;4972112;28;20058;-81
2022/05/22 07:29:41;;;;;;;5.97;5.28;;;;;;;26.30;49.67;100912.88;4971822;28;20062;-81
2022/05/22 07:32:13;;;;;;;;;;;;;;;26.36;49.72;100930.16;4972867;28;20057;-80
2022/05/22 07:34:42;;;;;;;9.50;5.57;;;;;;;25.47;49.75;100770.38;4971366;28;20376;-82
2022/05/22 07:37:10;;;;;;;8.35;5.78;;;;;;;26.50;49.48;100920.72;4989054;28;20160;-82
2022/05/22 07:39:37;;;;;;;6.97;5.38;;;;;;;26.29;49.59;100894.91;4971407;28;20132;-82
2022/05/22 07:42:04;;;;;;;10.13;6.15;;;;;;;26.45;49.92;100898.84;4971444;28;20561;-81
2022/05/22 07:44:31;;;;;;;6.28;5.68;;;;;;;26.53;49.61;100912.16;4971462;28;20046;-82
2022/05/22 07:46:58;;;;;;;8.48;5.72;;;;;;;26.41;49.24;100879.44;4971618;28;20050;-82
2022/05/22 07:52:10;;;;;;;5.80;5.03;;;;;;;26.82;49.11;100915.84;4988486;28;20559;-80
2022/05/22 07:54:52;;;;;;;7.68;5.68;;;;;;;26.73;49.19;100902.81;4973185;28;20050;-81
2022/05/22 07:57:19;;;;;;;9.05;5.68;;;;;;;26.97;48.48;100920.00;4987261;28;20061;-80
2022/05/22 07:59:46;;;;;;;6.80;6.10;;;;;;;26.84;48.70;100889.16;4971380;28;20046;-81
2022/05/22 08:02:13;;;;;;;8.75;5.53;;;;;;;27.00;48.69;100906.69;4971187;28;20058;-81
2022/05/22 08:04:43;;;;;;;13.82;6.32;;;;;;;26.93;49.15;100886.94;4971493;28;20053;-81
2022/05/22 08:07:11;;;;;;;6.10;5.50;;;;;;;26.56;48.68;100821.84;4971245;28;20051;-82
2022/05/22 08:09:38;;;;;;;8.80;6.00;;;;;;;26.91;48.05;100847.38;4971500;28;20497;-82
2022/05/22 08:12:05;;;;;;;10.52;6.25;;;;;;;27.32;48.29;100905.50;4972419;28;20061;-82
2022/05/22 08:14:32;;;;;;;9.63;5.88;;;;;;;27.59;47.01;100901.16;4974965;28;20106;-82
2022/05/22 08:17:01;;;;;;;10.68;5.85;;;;;;;27.57;47.34;100894.28;4992802;28;20141;-82
2022/05/22 08:19:28;;;;;;;6.57;5.28;;;;;;;27.52;47.75;100891.47;4971293;28;20300;-82
2022/05/22 08:21:55;;;;;;;7.70;5.80;;;;;;;27.27;47.73;100843.53;4970976;28;20314;-83
2022/05/22 08:24:21;;;;;;;7.65;5.35;;;;;;;27.24;47.54;100824.97;4987102;28;20252;-81
2022/05/22 08:26:48;;;;;;;8.98;6.25;;;;;;;27.65;47.41;100883.03;4969161;28;20652;-82
2022/05/22 08:29:15;;;;;;;6.97;5.95;;;;;;;27.70;47.55;100886.66;4969937;28;20042;-81
2022/05/22 08:31:41;;;;;;;9.95;5.85;;;;;;;27.58;47.62;100869.53;4971100;28;20058;-82
2022/05/22 08:34:08;;;;;;;7.57;6.15;;;;;;;27.76;47.51;100878.56;4971131;28;20061;-82
2022/05/22 08:36:35;;;;;;;8.82;6.75;;;;;;;27.84;47.47;100867.28;4988282;28;20128;-83
2022/05/22 08:39:03;;;;;;;12.57;6.50;;;;;;;27.92;47.91;100862.28;4988116;28;20104;-81
2022/05/22 08:41:45;;;;;;;11.82;6.95;;;;;;;27.55;46.75;100792.81;4970880;28;20054;-82
2022/05/22 08:44:16;;;;;;;8.07;5.97;;;;;;;28.09;47.07;100867.75;4970683;28;20054;-82
2022/05/22 08:47:13;;;;;;;10.60;6.60;;;;;;;28.16;46.40;100861.28;4970861;28;20333;-82
2022/05/22 08:49:47;;;;;;;9.07;5.75;;;;;;;28.21;46.56;100867.69;4968997;28;20409;-82
2022/05/22 08:52:42;;;;;;;7.97;6.45;;;;;;;28.43;45.75;100858.75;4971425;28;20054;-83
2022/05/22 08:55:22;;;;;;;9.98;6.25;;;;;;;28.27;45.62;100827.66;4989535;28;20058;-82
2022/05/22 09:01:15;;;;;;;11.70;6.25;;;;;;;28.45;46.14;100864.78;4947683;29;20047;-84
2022/05/22 09:03:57;;;;;;;10.55;7.07;;;;;;;28.10;45.94;100809.38;4963371;28;20398;-83
2022/05/22 09:06:39;;;;;;;9.45;6.82;;;;;;;28.28;46.42;100834.78;4967640;28;20053;-81
2022/05/22 09:09:06;;;;;;;17.17;6.63;;;;;;;28.31;46.28;100842.47;4968309;28;20405;-81
2022/05/22 09:11:56;;;;;;;8.05;6.47;;;;;;;28.47;46.63;100857.19;4967861;28;20055;-81
2022/05/22 09:14:31;;;;;;;10.95;6.03;;;;;;;28.49;46.33;100861.34;4966398;28;20069;-81
2022/05/22 09:17:18;;;;;;;14.23;7.80;;;;;;;28.60;46.63;100862.34;4967695;28;20565;-82
2022/05/22 09:19:58;;;;;;;10.65;6.68;;;;;;;28.77;46.57;100857.66;4966533;28;20046;-82
2022/05/22 09:22:51;;;;;;;10.15;7.30;;;;;;;28.81;46.23;100857.16;4968048;28;20053;-82
2022/05/22 09:25:45;;;;;;;17.45;7.25;;;;;;;28.80;46.62;100856.34;4961922;28;20047;-82
2022/05/22 09:28:37;;;;;;;10.32;7.60;;;;;;;28.77;46.60;100865.84;4967300;28;20070;-82
2022/05/22 09:31:43;;;;;;;12.93;8.02;;;;;;;28.93;46.09;100868.81;4966566;28;20428;-82
2022/05/22 09:34:10;;;;;;;16.48;8.02;;;;;;;28.38;45.66;100765.84;4968164;28;20051;-82
2022/05/22 09:36:46;;;;;;;12.90;8.77;;;;;;;28.92;45.81;100853.50;4968245;28;20448;-81
2022/05/22 09:39:32;;;;;;;11.65;8.00;;;;;;;29.27;45.25;100874.19;4969035;28;20058;-81
2022/05/22 09:42:43;;;;;;;10.43;7.72;;;;;;;28.76;46.37;100801.38;4972031;28;20043;-82
2022/05/22 09:45:14;;;;;;;12.50;8.50;;;;;;;28.61;46.05;100773.03;4876805;29;20105;-86
2022/05/22 09:47:53;;;;;;;10.63;9.40;;;;;;;29.21;45.60;100845.97;4938468;28;20125;-81
2022/05/22 09:50:55;;;;;;;11.50;8.38;;;;;;;29.15;46.07;100809.56;4951175;28;20043;-82
2022/05/22 09:53:40;;;;;;;14.57;9.90;;;;;;;29.36;45.35;100837.13;4963976;28;20134;-82
2022/05/22 09:56:53;;;;;;;10.80;8.73;;;;;;;29.58;45.06;100840.66;4970455;28;20129;-82
2022/05/22 09:59:58;;;;;;;14.13;8.27;;;;;;;29.90;45.14;100858.25;4971902;28;20513;-82
2022/05/22 10:02:36;;;;;;;11.82;8.45;;;;;;;29.64;44.94;100796.94;4978140;28;20062;-81
2022/05/22 10:05:14;;;;;;;11.52;9.70;;;;;;;29.87;44.48;100847.81;4970993;28;20054;-81
2022/05/22 10:08:15;;;;;;;10.50;7.75;;;;;;;30.09;44.42;100847.75;4974500;28;20058;-82
2022/05/22 10:10:55;;;;;;;12.73;9.35;;;;;;;29.86;44.90;100797.75;4994325;28;20062;-82
2022/05/22 10:13:53;;;;;;;10.77;8.90;;;;;;;30.07;45.07;100819.78;4975641;28;20050;-82
2022/05/22 10:16:40;;;;;;;9.75;8.75;;;;;;;30.32;44.57;100844.69;4992697;28;20069;-82
2022/05/22 10:19:25;;;;;;;13.05;8.68;;;;;;;30.23;44.08;100810.63;4975412;28;20046;-82
2022/05/22 10:22:07;;;;;;;12.68;9.30;;;;;;;29.61;44.34;100708.88;4976187;28;20053;-81
2022/05/22 10:24:46;;;;;;;10.55;8.43;;;;;;;30.55;43.48;100801.56;4973101;28;20421;-82
2022/05/22 10:27:58;;;;;;;12.32;8.45;;;;;;;30.85;43.10;100820.94;4972967;28;20053;-82
2022/05/22 10:30:29;;;;;;;17.48;8.68;;;;;;;30.84;42.77;100823.94;4969338;28;20620;-82
2022/05/22 10:32:59;;;;;;;;;;;;;;;30.84;43.06;100819.28;4973115;28;20050;-81
2022/05/22 10:35:53;;;;;;;11.98;7.78;;;;;;;30.89;43.04;100815.75;4972546;28;19922;-82
2022/05/22 10:38:28;;;;;;;16.80;8.98;;;;;;;30.62;42.24;100761.06;4972670;28;20058;-83
2022/05/22 10:43:46;;;;;;;14.07;8.15;;;;;;;30.76;42.41;100778.66;4989109;28;20516;-82
2022/05/22 10:46:13;;;;;;;8.98;7.88;;;;;;;30.97;42.87;100811.66;4989215;28;20050;-83
2022/05/22 10:48:54;;;;;;;12.07;7.45;;;;;;;30.97;42.33;100774.09;4972500;28;20481;-83
2022/05/22 10:51:25;;;;;;;13.32;7.22;;;;;;;31.30;41.76;100783.00;4973260;28;20054;-82
2022/05/22 10:53:58;;;;;;;9.93;8.13;;;;;;;31.57;42.26;100798.44;4972547;28;20043;-81
2022/05/22 10:56:33;;;;;;;9.90;7.68;;;;;;;31.54;41.96;100772.38;4972254;28;20049;-82
2022/05/22 10:59:06;;;;;;;18.92;7.50;;;;;;;31.63;42.37;100795.44;4972165;28;20054;-82
2022/05/22 11:01:40;;;;;;;11.20;8.00;;;;;;;31.66;42.00;100797.63;4972005;28;20077;-82
2022/05/22 11:04:08;;;;;;;8.65;7.82;;;;;;;31.77;42.18;100792.16;4972495;28;20047;-83
2022/05/22 11:06:37;;;;;;;16.63;7.45;;;;;;;31.82;41.74;100768.25;4972374;28;20054;-84
2022/05/22 11:09:07;;;;;;;12.85;8.50;;;;;;;31.95;42.08;100777.91;4972978;28;20260;-84
2022/05/22 11:11:37;;;;;;;14.48;8.10;;;;;;;31.96;42.25;100768.56;4972370;28;20084;-82
2022/05/22 11:14:22;;;;;;;11.40;8.43;;;;;;;31.82;41.61;100726.28;4972605;28;20058;-82
2022/05/22 11:16:49;;;;;;;11.30;8.85;;;;;;;32.29;40.84;100777.34;4972695;28;20050;-82
2022/05/22 11:19:23;;;;;;;10.95;8.13;;;;;;;32.50;40.74;100784.47;4973886;28;20054;-81
2022/05/22 11:22:05;;;;;;;11.30;7.95;;;;;;;32.22;40.76;100739.16;4972455;28;20050;-82
2022/05/22 11:24:50;;;;;;;10.05;7.75;;;;;;;32.51;40.71;100764.13;4989322;28;20057;-82
2022/05/22 11:27:32;;;;;;;11.10;8.13;;;;;;;32.68;41.19;100784.97;4972272;28;20054;-81
2022/05/22 11:30:02;;;;;;;13.30;9.00;;;;;;;32.76;39.82;100787.13;4972572;28;20105;-81
2022/05/22 11:32:56;;;;;;;14.77;8.35;;;;;;;33.02;39.74;100795.28;4972312;28;20065;-81
2022/05/22 11:35:44;;;;;;;12.00;7.65;;;;;;;33.04;40.10;100787.56;4971675;28;20050;-82
2022/05/22 11:38:26;;;;;;;9.40;8.40;;;;;;;32.67;39.13;100700.84;4989125;28;20081;-83
2022/05/22 11:40:56;;;;;;;11.45;8.25;;;;;;;33.44;39.31;100782.97;4971871;28;20482;-82
2022/05/22 11:44:09;;;;;;;15.45;7.90;;;;;;;33.46;39.03;100780.75;4971390;28;20042;-82
2022/05/22 11:46:51;;;;;;;10.32;6.90;;;;;;;33.83;38.77;100783.78;4970997;28;20054;-82
2022/05/22 11:49:22;;;;;;;9.32;8.15;;;;;;;33.97;38.55;100788.66;4971311;28;20054;-81
2022/05/22 11:51:59;;;;;;;16.23;7.95;;;;;;;34.09;38.42;100780.84;4971482;28;20508;-82
2022/05/22 11:54:29;;;;;;;13.90;7.53;;;;;;;34.25;37.78;100774.09;4971307;28;20058;-82
2022/05/22 11:57:11;;;;;;;8.68;7.82;;;;;;;33.99;37.89;100717.59;4971869;28;20564;-82
2022/05/22 11:59:58;;;;;;;9.85;8.45;;;;;;;34.18;37.72;100762.59;4971719;28;20306;-80